Time;durP1;ratioP1;P1;durP2;ratioP2;P2;SDS_P1;SDS_P2;PMS_P1;PMS_P2;Temp;Humidity;BMP_temperature;BMP_pressure;BME280_temperature;BME280_humidity;BME280_pressure;Samples;Min_cycle;Max_cycle;Signal;HPM_P1;HPM_P2
2022/03/19 00:00:31;;;;;;;43.40;30.00;;;4.40;99.90;;;;;;4981218;28;20037;-76
2022/03/19 00:02:57;;;;;;;47.07;29.57;;;4.40;99.90;;;;;;4991573;28;20057;-76
2022/03/19 00:05:23;;;;;;;45.10;29.33;;;4.30;99.90;;;;;;4991240;28;20034;-76
2022/03/19 00:07:49;;;;;;;48.27;31.17;;;4.30;99.90;;;;;;4991307;28;20022;-76
2022/03/19 00:10:16;;;;;;;45.57;31.60;;;4.30;99.90;;;;;;4990743;28;20373;-76
2022/03/19 00:12:42;;;;;;;48.87;31.17;;;4.30;99.90;;;;;;4991117;28;20039;-75
2022/03/19 00:15:09;;;;;;;52.87;35.30;;;4.20;99.90;;;;;;4991093;28;20026;-75
2022/03/19 00:17:34;;;;;;;52.20;35.17;;;4.20;99.90;;;;;;4973556;28;20019;-75
2022/03/19 00:20:00;;;;;;;49.03;33.13;;;4.10;99.90;;;;;;4991110;28;20065;-75
2022/03/19 00:22:26;;;;;;;49.03;33.80;;;4.10;99.90;;;;;;4990988;28;20030;-74
2022/03/19 00:24:52;;;;;;;52.90;33.13;;;4.10;99.90;;;;;;4991042;28;20031;-76
2022/03/19 00:27:18;;;;;;;54.37;35.17;;;4.10;99.90;;;;;;4991211;28;20038;-76
2022/03/19 00:29:43;;;;;;;52.43;35.57;;;4.10;99.90;;;;;;4973315;28;20029;-76
2022/03/19 00:32:09;;;;;;;53.30;36.27;;;4.10;99.90;;;;;;4991299;28;20383;-75
2022/03/19 00:34:34;;;;;;;53.17;36.13;;;4.10;99.90;;;;;;4990706;28;20026;-74
2022/03/19 00:37:00;;;;;;;59.97;37.23;;;4.10;99.90;;;;;;4990935;28;20036;-74
2022/03/19 00:39:25;;;;;;;55.33;37.00;;;4.20;99.90;;;;;;4973497;28;20018;-74
2022/03/19 00:41:54;;;;;;;58.00;37.43;;;4.30;99.90;;;;;;4991199;28;20745;-76
2022/03/19 00:44:23;;;;;;;58.50;38.30;;;4.20;99.90;;;;;;4992821;28;20030;-76
2022/03/19 00:46:49;;;;;;;58.30;40.13;;;4.30;99.90;;;;;;4992970;28;20382;-76
2022/03/19 00:49:15;;;;;;;62.40;40.27;;;4.20;99.90;;;;;;4975514;28;20037;-76
2022/03/19 00:51:40;;;;;;;62.57;41.47;;;4.30;99.90;;;;;;4975391;28;20030;-76
2022/03/19 00:54:07;;;;;;;63.23;42.13;;;4.20;99.90;;;;;;4993027;28;20045;-76
2022/03/19 00:56:34;;;;;;;64.40;43.40;;;4.10;99.90;;;;;;4992785;28;20015;-76
2022/03/19 00:59:00;;;;;;;66.10;43.13;;;4.00;99.90;;;;;;4992559;28;20027;-76
2022/03/19 01:01:26;;;;;;;66.87;45.17;;;4.10;99.90;;;;;;4992781;28;20439;-76
2022/03/19 01:03:52;;;;;;;67.23;44.67;;;4.00;99.90;;;;;;4992578;28;20036;-76
2022/03/19 01:06:18;;;;;;;69.10;44.80;;;4.10;99.90;;;;;;4991119;28;20034;-76
2022/03/19 01:08:43;;;;;;;71.63;44.97;;;4.10;99.90;;;;;;4992672;28;20030;-76
2022/03/19 01:11:09;;;;;;;76.77;47.67;;;4.10;99.90;;;;;;4975190;28;20023;-77
2022/03/19 01:13:34;;;;;;;77.37;47.77;;;4.20;99.90;;;;;;4992522;28;20023;-76
2022/03/19 01:16:02;;;;;;;76.60;47.90;;;4.20;99.90;;;;;;4992660;28;20026;-77
2022/03/19 01:18:28;;;;;;;75.03;48.03;;;4.20;99.90;;;;;;4975095;28;20093;-74
2022/03/19 01:20:54;;;;;;;77.43;49.10;;;4.20;99.90;;;;;;4992540;28;20044;-75
2022/03/19 01:23:19;;;;;;;78.83;48.20;;;4.30;99.90;;;;;;4992454;28;20427;-75
2022/03/19 01:25:45;;;;;;;75.57;47.90;;;4.30;99.90;;;;;;4992398;28;20027;-75
2022/03/19 01:28:10;;;;;;;76.87;49.40;;;4.30;99.90;;;;;;4992188;28;20037;-76
2022/03/19 01:30:36;;;;;;;77.40;49.53;;;4.10;99.90;;;;;;4992262;28;20026;-77
2022/03/19 01:33:01;;;;;;;81.23;51.03;;;4.00;99.90;;;;;;4991184;28;20029;-76
2022/03/19 01:35:27;;;;;;;77.83;49.93;;;3.90;99.90;;;;;;4992284;28;20037;-76
2022/03/19 01:37:53;;;;;;;84.73;52.50;;;3.90;99.90;;;;;;4992201;28;20061;-76
2022/03/19 01:40:20;;;;;;;82.27;50.87;;;3.90;99.90;;;;;;4992261;28;20023;-77
2022/03/19 01:42:47;;;;;;;79.67;50.97;;;3.80;99.90;;;;;;4991768;28;20033;-76
2022/03/19 01:45:16;;;;;;;79.60;50.23;;;3.70;99.90;;;;;;4991812;28;20150;-77
2022/03/19 01:47:42;;;;;;;78.60;50.50;;;3.80;99.90;;;;;;4991504;28;20034;-76
2022/03/19 01:50:09;;;;;;;79.17;51.03;;;3.80;99.90;;;;;;4991456;28;20041;-76
2022/03/19 01:52:35;;;;;;;82.60;52.57;;;3.80;99.90;;;;;;4992329;28;20062;-77
2022/03/19 01:55:02;;;;;;;79.97;51.10;;;3.80;99.90;;;;;;4977767;28;20117;-77
2022/03/19 01:57:34;;;;;;;79.93;51.70;;;3.80;99.90;;;;;;4995016;28;20073;-76
2022/03/19 02:00:00;;;;;;;83.80;52.73;;;3.70;99.90;;;;;;4994731;28;20026;-76
2022/03/19 02:02:27;;;;;;;80.47;51.03;;;3.70;99.90;;;;;;4995572;28;20027;-76
2022/03/19 02:04:53;;;;;;;84.33;51.47;;;3.70;99.90;;;;;;4995610;28;20033;-76
2022/03/19 02:07:18;;;;;;;83.70;52.07;;;3.70;99.90;;;;;;4995332;28;20404;-76
2022/03/19 02:09:44;;;;;;;91.23;53.93;;;3.60;99.90;;;;;;4995080;28;20141;-76
2022/03/19 02:12:10;;;;;;;88.73;53.33;;;3.50;99.90;;;;;;4995022;28;20038;-76
2022/03/19 02:14:38;;;;;;;86.73;53.83;;;3.50;99.90;;;;;;4977135;28;20491;-76
2022/03/19 02:17:04;;;;;;;90.80;56.10;;;3.40;99.90;;;;;;4995104;28;20026;-76
2022/03/19 02:19:31;;;;;;;91.10;56.93;;;3.40;99.90;;;;;;4994863;28;20724;-76
2022/03/19 02:21:56;;;;;;;87.43;53.90;;;3.40;99.90;;;;;;4994388;28;20030;-76
2022/03/19 02:27:06;;;;;;;86.73;53.70;;;3.50;99.90;;;;;;4994567;28;20557;-76
2022/03/19 02:29:32;;;;;;;92.97;57.13;;;3.50;99.90;;;;;;4994162;28;20030;-76
2022/03/19 02:31:59;;;;;;;91.73;56.37;;;3.40;99.90;;;;;;4977249;28;20100;-76
2022/03/19 02:34:25;;;;;;;92.17;56.63;;;3.50;99.90;;;;;;4994445;28;20394;-76
2022/03/19 02:36:51;;;;;;;89.70;54.93;;;3.40;99.90;;;;;;4994913;28;20046;-76
2022/03/19 02:39:28;;;;;;;92.50;57.20;;;3.40;99.90;;;;;;4993465;28;20030;-76
2022/03/19 02:41:55;;;;;;;96.03;57.37;;;3.40;99.90;;;;;;4977404;28;20133;-76
2022/03/19 02:44:21;;;;;;;97.93;59.33;;;3.40;99.90;;;;;;4994663;28;20023;-76
2022/03/19 02:46:52;;;;;;;95.97;58.23;;;3.20;99.90;;;;;;4994724;28;20034;-76
2022/03/19 02:49:19;;;;;;;90.67;55.13;;;3.20;99.90;;;;;;4977153;28;20468;-76
2022/03/19 02:51:47;;;;;;;88.77;56.17;;;3.10;99.90;;;;;;4977018;28;20116;-76
2022/03/19 02:54:15;;;;;;;93.03;56.93;;;3.20;99.90;;;;;;4994821;28;20391;-76
2022/03/19 02:56:42;;;;;;;92.37;55.17;;;3.10;99.90;;;;;;4994619;28;20101;-76
2022/03/19 02:59:20;;;;;;;89.70;55.43;;;3.10;99.90;;;;;;4994177;28;20034;-76
2022/03/19 03:01:48;;;;;;;97.10;57.10;;;3.00;99.90;;;;;;4994768;28;20034;-76
2022/03/19 03:04:14;;;;;;;87.80;53.13;;;3.00;99.90;;;;;;4982873;28;20027;-76
2022/03/19 03:06:42;;;;;;;86.77;53.90;;;3.10;99.90;;;;;;4957956;28;20026;-75
2022/03/19 03:09:08;;;;;;;88.17;53.50;;;3.30;99.90;;;;;;4975125;28;20415;-76
2022/03/19 03:11:34;;;;;;;82.00;50.93;;;3.20;99.90;;;;;;4957580;28;20053;-75
2022/03/19 03:14:00;;;;;;;84.60;51.70;;;3.20;99.90;;;;;;4974978;28;20022;-75
2022/03/19 03:16:29;;;;;;;89.27;51.83;;;3.20;99.90;;;;;;4974935;28;20201;-75
2022/03/19 03:19:06;;;;;;;85.10;51.87;;;3.30;99.90;;;;;;4975024;28;20031;-75
2022/03/19 03:21:33;;;;;;;85.27;51.43;;;3.20;99.90;;;;;;4974791;28;20027;-76
2022/03/19 03:23:59;;;;;;;86.97;53.90;;;3.00;99.90;;;;;;4974823;28;20031;-76
2022/03/19 03:26:25;;;;;;;85.00;52.43;;;3.10;99.90;;;;;;4957842;28;20433;-75
2022/03/19 03:28:51;;;;;;;86.77;52.43;;;3.00;99.90;;;;;;4974709;28;20468;-75
2022/03/19 03:31:17;;;;;;;88.23;53.57;;;2.90;99.90;;;;;;4974737;28;20038;-76
2022/03/19 03:33:43;;;;;;;88.33;52.23;;;2.80;99.90;;;;;;4974452;28;20027;-76
2022/03/19 03:36:09;;;;;;;89.73;53.13;;;2.70;99.90;;;;;;4966026;28;20475;-76
2022/03/19 03:38:35;;;;;;;89.17;53.23;;;2.60;99.90;;;;;;4994049;28;20031;-76
2022/03/19 03:41:00;;;;;;;93.83;55.50;;;2.50;99.90;;;;;;4994023;28;20022;-76
2022/03/19 03:43:26;;;;;;;87.20;53.13;;;2.40;99.90;;;;;;4993960;28;20352;-76
2022/03/19 03:45:52;;;;;;;85.90;51.97;;;2.40;99.90;;;;;;4992266;28;20018;-76
2022/03/19 03:48:18;;;;;;;85.90;52.40;;;2.30;99.90;;;;;;4993635;28;20124;-76
2022/03/19 03:50:44;;;;;;;84.23;50.67;;;2.30;99.90;;;;;;4993603;28;20034;-76
2022/03/19 03:53:09;;;;;;;84.70;51.00;;;2.30;99.90;;;;;;4993654;28;20026;-76
2022/03/19 03:55:37;;;;;;;80.47;50.30;;;2.20;99.90;;;;;;4993607;28;20108;-76
2022/03/19 03:58:04;;;;;;;85.67;51.20;;;2.10;99.90;;;;;;4993502;28;20022;-76
2022/03/19 04:00:30;;;;;;;81.27;49.87;;;2.10;99.90;;;;;;4993397;28;20022;-75
2022/03/19 04:02:56;;;;;;;80.67;48.80;;;2.00;99.90;;;;;;4993201;28;20050;-76
2022/03/19 04:05:22;;;;;;;80.47;47.87;;;2.00;99.90;;;;;;4993110;28;20054;-75
2022/03/19 04:07:47;;;;;;;77.70;47.80;;;2.10;99.90;;;;;;4993370;28;20034;-76
2022/03/19 04:10:13;;;;;;;78.60;47.40;;;2.10;99.90;;;;;;4993056;28;20523;-76
2022/03/19 04:12:39;;;;;;;82.47;48.70;;;2.10;99.90;;;;;;4975735;28;20026;-75
2022/03/19 04:15:06;;;;;;;76.60;46.47;;;2.10;99.90;;;;;;4993064;28;20052;-75
2022/03/19 04:17:31;;;;;;;81.30;46.90;;;2.10;99.90;;;;;;4991448;28;20030;-76
2022/03/19 04:19:57;;;;;;;74.73;45.20;;;2.00;99.90;;;;;;4992956;28;20105;-75
2022/03/19 04:22:22;;;;;;;75.73;47.23;;;2.10;99.90;;;;;;4993132;28;20022;-75
2022/03/19 04:24:48;;;;;;;78.80;47.90;;;2.10;99.90;;;;;;4993016;28;20030;-76
2022/03/19 04:27:14;;;;;;;75.57;44.73;;;2.10;99.90;;;;;;4975517;28;20033;-76
2022/03/19 04:29:40;;;;;;;77.97;46.90;;;2.20;99.90;;;;;;4992948;28;20088;-76
2022/03/19 04:32:07;;;;;;;73.43;45.40;;;2.10;99.90;;;;;;4992821;28;20428;-76
2022/03/19 04:34:32;;;;;;;80.33;47.43;;;2.10;99.90;;;;;;4992893;28;20038;-76
2022/03/19 04:36:58;;;;;;;81.73;47.90;;;2.00;99.90;;;;;;4991497;28;20019;-76
2022/03/19 04:39:24;;;;;;;80.10;47.77;;;2.00;99.90;;;;;;4992744;28;20080;-75
2022/03/19 04:41:49;;;;;;;79.20;47.83;;;1.90;99.90;;;;;;4992880;28;20031;-75
2022/03/19 04:44:16;;;;;;;83.67;46.90;;;1.90;99.90;;;;;;4993078;28;20482;-76
2022/03/19 04:46:42;;;;;;;78.33;48.10;;;1.90;99.90;;;;;;4975156;28;20026;-76
2022/03/19 04:49:07;;;;;;;80.87;49.10;;;1.80;99.90;;;;;;4992975;28;20510;-75
2022/03/19 04:51:36;;;;;;;80.67;49.00;;;1.70;99.90;;;;;;4992411;28;20018;-75
2022/03/19 04:54:02;;;;;;;82.90;48.63;;;1.60;99.90;;;;;;4992019;28;20077;-75
2022/03/19 04:56:29;;;;;;;78.73;49.50;;;1.60;99.90;;;;;;4991138;28;20022;-75
2022/03/19 04:58:59;;;;;;;81.60;47.73;;;1.50;99.90;;;;;;4975670;28;20022;-75
2022/03/19 05:01:29;;;;;;;81.90;49.57;;;1.50;99.90;;;;;;4993028;28;20071;-84
2022/03/19 05:03:55;;;;;;;85.60;48.53;;;1.50;99.90;;;;;;4978627;28;20046;-80
2022/03/19 05:06:21;;;;;;;75.13;44.63;;;1.50;99.90;;;;;;4995643;28;20031;-76
2022/03/19 05:11:12;;;;;;;73.67;46.87;;;1.40;99.90;;;;;;4975390;28;20069;-75
2022/03/19 05:11:34;;;;;;;80.47;43.17;;;1.40;99.90;;;;;;4992946;28;20101;-76
2022/03/19 05:13:59;;;;;;;76.50;44.97;;;1.40;99.90;;;;;;4958503;28;20491;-76
2022/03/19 05:16:25;;;;;;;79.87;46.07;;;1.30;99.90;;;;;;4968980;28;20018;-76
2022/03/19 05:18:50;;;;;;;75.53;45.23;;;1.30;99.90;;;;;;4984993;28;20030;-76
2022/03/19 05:21:17;;;;;;;72.40;43.10;;;1.20;99.90;;;;;;4990110;28;20435;-76
2022/03/19 05:23:45;;;;;;;76.57;45.10;;;1.20;99.90;;;;;;4982940;28;20503;-75
2022/03/19 05:26:11;;;;;;;84.03;45.97;;;1.20;99.90;;;;;;4986355;28;20022;-74
2022/03/19 05:28:36;;;;;;;80.60;45.00;;;1.20;99.90;;;;;;4968218;28;20033;-74
2022/03/19 05:31:02;;;;;;;75.90;44.43;;;1.10;99.90;;;;;;4994818;28;20022;-75
2022/03/19 05:36:12;;;;;;;75.87;45.67;;;1.00;99.90;;;;;;4996258;28;20037;-74
2022/03/19 05:38:38;;;;;;;76.97;47.07;;;1.00;99.90;;;;;;4994819;28;20026;-74
2022/03/19 05:41:03;;;;;;;74.73;44.83;;;1.00;99.90;;;;;;4995618;28;20145;-74
2022/03/19 05:43:29;;;;;;;76.93;45.17;;;1.00;99.90;;;;;;4996424;28;20364;-74
2022/03/19 05:45:55;;;;;;;73.47;42.53;;;0.90;99.90;;;;;;4996394;28;20108;-74
2022/03/19 05:48:21;;;;;;;76.63;44.53;;;0.90;99.90;;;;;;4995581;28;20022;-73
2022/03/19 05:50:46;;;;;;;77.80;43.73;;;1.00;99.90;;;;;;4992799;28;20468;-74
2022/03/19 05:53:12;;;;;;;75.47;43.50;;;1.00;99.90;;;;;;4995495;28;20101;-70
2022/03/19 05:55:37;;;;;;;72.33;44.47;;;1.10;99.90;;;;;;4995960;28;20030;-76
2022/03/19 05:58:03;;;;;;;73.57;43.03;;;1.10;99.90;;;;;;4996395;28;20025;-76
2022/03/19 06:00:28;;;;;;;73.67;43.83;;;1.20;99.90;;;;;;4996645;28;20030;-76
2022/03/19 06:02:54;;;;;;;70.20;41.67;;;1.20;99.90;;;;;;4996657;28;20050;-76
2022/03/19 06:05:20;;;;;;;71.97;42.07;;;1.30;99.90;;;;;;4979186;28;20027;-76
2022/03/19 06:07:45;;;;;;;69.17;40.43;;;1.30;99.90;;;;;;4996359;28;20094;-76
2022/03/19 06:10:11;;;;;;;64.23;40.90;;;1.40;99.90;;;;;;4996212;28;20097;-76
2022/03/19 06:12:37;;;;;;;66.37;38.53;;;1.50;99.90;;;;;;4996306;28;20022;-76
2022/03/19 06:15:03;;;;;;;66.13;39.07;;;1.60;99.90;;;;;;4978944;28;20460;-76
2022/03/19 06:17:29;;;;;;;65.47;38.53;;;1.70;99.90;;;;;;4996490;28;20414;-76
2022/03/19 06:19:54;;;;;;;63.90;39.40;;;1.90;99.90;;;;;;4996203;28;20101;-76
2022/03/19 06:22:22;;;;;;;64.43;37.83;;;2.20;99.90;;;;;;4996135;28;20463;-76
2022/03/19 06:24:48;;;;;;;65.53;36.87;;;2.30;99.90;;;;;;4996435;28;20416;-76
2022/03/19 06:27:13;;;;;;;63.20;38.17;;;2.30;99.90;;;;;;4978808;28;20065;-76
2022/03/19 06:29:39;;;;;;;61.07;37.27;;;2.20;99.90;;;;;;4978543;28;20026;-76
2022/03/19 06:32:05;;;;;;;59.10;36.83;;;2.20;99.90;;;;;;4978559;28;20022;-76
2022/03/19 06:34:32;;;;;;;60.40;36.87;;;2.30;99.90;;;;;;4996497;28;20069;-76
2022/03/19 06:39:42;;;;;;;62.60;35.77;;;2.50;99.90;;;;;;4995631;28;20033;-76
2022/03/19 06:42:07;;;;;;;55.57;34.90;;;2.40;99.90;;;;;;4978250;28;20034;-76
2022/03/19 06:44:33;;;;;;;53.00;32.33;;;2.40;99.90;;;;;;4995686;28;20027;-76
2022/03/19 06:46:59;;;;;;;53.03;31.60;;;2.50;99.90;;;;;;4995905;28;20030;-76
2022/03/19 06:49:27;;;;;;;57.03;32.20;;;2.70;99.90;;;;;;4978077;28;20022;-76
2022/03/19 06:51:52;;;;;;;55.63;31.93;;;2.70;99.90;;;;;;4995806;28;20368;-74
2022/03/19 06:54:18;;;;;;;53.80;31.63;;;2.80;99.90;;;;;;4978173;28;20030;-76
2022/03/19 06:56:43;;;;;;;50.37;30.70;;;2.90;99.90;;;;;;4995687;28;20022;-76
2022/03/19 06:59:09;;;;;;;46.93;29.47;;;2.90;99.90;;;;;;4995617;28;20024;-75
2022/03/19 07:01:36;;;;;;;49.20;27.90;;;3.00;99.90;;;;;;4995997;28;20037;-76
2022/03/19 07:04:03;;;;;;;52.27;29.47;;;3.10;99.90;;;;;;4977873;28;20037;-75
2022/03/19 07:06:29;;;;;;;46.47;29.37;;;3.30;99.90;;;;;;4995632;28;20046;-76
2022/03/19 07:08:55;;;;;;;49.13;28.90;;;3.40;99.90;;;;;;4995007;28;20046;-76
2022/03/19 07:11:21;;;;;;;45.00;27.80;;;3.40;99.90;;;;;;4995227;28;20080;-75
2022/03/19 07:13:46;;;;;;;44.53;27.40;;;3.50;99.90;;;;;;4995121;28;20033;-75
2022/03/19 07:16:12;;;;;;;47.13;26.90;;;3.70;99.90;;;;;;4995033;28;20080;-76
2022/03/19 07:18:37;;;;;;;44.57;26.43;;;3.80;99.90;;;;;;4977433;28;20029;-76
2022/03/19 07:21:03;;;;;;;45.13;26.50;;;3.90;99.90;;;;;;4995272;28;20105;-76
2022/03/19 07:23:29;;;;;;;44.37;26.30;;;4.00;99.90;;;;;;4994981;28;20026;-76
2022/03/19 07:25:59;;;;;;;42.93;26.63;;;4.10;99.90;;;;;;4977483;28;20057;-75
2022/03/19 07:28:26;;;;;;;42.50;25.73;;;4.30;99.90;;;;;;4994903;28;20217;-75
2022/03/19 07:30:51;;;;;;;39.63;24.63;;;4.30;99.90;;;;;;4994932;28;20481;-75
2022/03/19 07:33:17;;;;;;;43.67;25.77;;;4.40;99.90;;;;;;4994795;28;20113;-75
2022/03/19 07:35:43;;;;;;;42.73;24.40;;;4.30;99.90;;;;;;4977206;28;20117;-75
2022/03/19 07:38:10;;;;;;;39.70;23.90;;;4.50;99.90;;;;;;4994719;28;20022;-75
2022/03/19 07:43:22;;;;;;;37.97;23.77;;;4.70;99.90;;;;;;4994857;28;20439;-75
2022/03/19 07:45:47;;;;;;;42.17;24.70;;;4.60;99.90;;;;;;4994462;28;20038;-75
2022/03/19 07:48:13;;;;;;;41.47;23.37;;;4.70;99.90;;;;;;4994691;28;20476;-75
2022/03/19 07:50:39;;;;;;;38.20;23.97;;;4.70;99.90;;;;;;4993988;28;20108;-75
2022/03/19 07:53:06;;;;;;;35.50;22.70;;;4.80;99.90;;;;;;4994313;28;20476;-75
2022/03/19 07:55:32;;;;;;;40.70;23.73;;;5.00;99.90;;;;;;4976929;28;20054;-75
2022/03/19 07:57:58;;;;;;;36.60;23.00;;;5.10;99.90;;;;;;4994440;28;20037;-76
2022/03/19 08:00:23;;;;;;;39.07;23.37;;;5.10;99.90;;;;;;4994242;28;20026;-75
2022/03/19 08:02:51;;;;;;;35.37;21.23;;;5.30;99.90;;;;;;4994595;28;20101;-75
2022/03/19 08:05:16;;;;;;;36.90;21.43;;;5.40;99.90;;;;;;4994440;28;20046;-75
2022/03/19 08:07:42;;;;;;;31.50;21.00;;;5.40;99.90;;;;;;4977147;28;20490;-75
2022/03/19 08:10:09;;;;;;;31.93;19.70;;;5.60;99.90;;;;;;4994233;28;20061;-75
2022/03/19 08:12:35;;;;;;;35.40;20.67;;;5.70;99.90;;;;;;4993997;28;20387;-75
2022/03/19 08:15:05;;;;;;;32.87;20.03;;;5.70;99.90;;;;;;4994150;28;20026;-75
2022/03/19 08:17:31;;;;;;;34.03;20.03;;;5.80;99.90;;;;;;4994174;28;20018;-76
2022/03/19 08:19:58;;;;;;;34.33;18.83;;;5.90;99.90;;;;;;4994007;28;20468;-75
2022/03/19 08:22:27;;;;;;;33.37;19.60;;;5.90;99.90;;;;;;4993948;28;20026;-75
2022/03/19 08:24:53;;;;;;;38.13;20.53;;;5.90;99.90;;;;;;4994226;28;20026;-76
2022/03/19 08:27:19;;;;;;;27.63;18.33;;;5.90;99.90;;;;;;4993869;28;20088;-75
2022/03/19 08:29:45;;;;;;;29.70;18.57;;;6.10;99.90;;;;;;4976361;28;20035;-75
2022/03/19 08:32:11;;;;;;;29.33;19.00;;;6.20;99.90;;;;;;4994032;28;20033;-76
2022/03/19 08:34:37;;;;;;;30.57;18.37;;;6.40;99.90;;;;;;4976486;28;20117;-76
2022/03/19 08:37:03;;;;;;;29.27;18.77;;;6.40;99.90;;;;;;4976398;28;20482;-75
2022/03/19 08:42:13;;;;;;;32.20;18.67;;;6.50;99.90;;;;;;4994426;28;20034;-76
2022/03/19 08:44:39;;;;;;;32.67;18.70;;;6.60;99.90;;;;;;4975912;28;20022;-74
2022/03/19 08:47:04;;;;;;;29.27;18.37;;;6.70;99.90;;;;;;4992117;28;20108;-74
2022/03/19 08:49:30;;;;;;;32.37;20.47;;;6.80;99.90;;;;;;4992148;28;20049;-74
2022/03/19 08:51:56;;;;;;;31.80;19.60;;;6.90;99.90;;;;;;4975970;28;20121;-74
2022/03/19 08:54:21;;;;;;;32.57;19.50;;;7.00;99.90;;;;;;4993299;28;20026;-74
2022/03/19 08:56:49;;;;;;;34.57;18.87;;;7.10;99.90;;;;;;4990865;28;20023;-78
2022/03/19 08:59:16;;;;;;;33.17;18.90;;;7.20;99.90;;;;;;4971306;28;20038;-79
2022/03/19 09:01:44;;;;;;;31.77;19.43;;;7.20;99.90;;;;;;4988334;28;20394;-80
2022/03/19 09:04:11;;;;;;;33.13;19.97;;;7.30;99.90;;;;;;4991301;28;20034;-79
2022/03/19 09:06:37;;;;;;;31.63;19.90;;;7.50;99.90;;;;;;4973383;28;20066;-80
2022/03/19 09:09:03;;;;;;;31.93;19.93;;;7.50;99.90;;;;;;4974623;28;20053;-79
2022/03/19 09:11:31;;;;;;;31.27;19.63;;;7.80;99.90;;;;;;4973866;28;20034;-80
2022/03/19 09:13:57;;;;;;;33.50;19.90;;;7.90;99.90;;;;;;4993743;28;20029;-75
2022/03/19 09:16:26;;;;;;;34.20;20.03;;;7.90;99.90;;;;;;4997202;28;20022;-75
2022/03/19 09:18:52;;;;;;;30.40;19.73;;;8.00;99.90;;;;;;4977570;28;20035;-80
2022/03/19 09:21:19;;;;;;;30.27;18.47;;;8.00;99.90;;;;;;4968159;28;20387;-80
2022/03/19 09:23:45;;;;;;;31.60;19.03;;;8.40;99.90;;;;;;4991172;28;20022;-79
2022/03/19 09:26:14;;;;;;;28.27;19.03;;;8.60;99.90;;;;;;4991117;28;20030;-80
2022/03/19 09:28:40;;;;;;;28.20;18.07;;;8.70;99.90;;;;;;4988529;28;20022;-80
2022/03/19 09:31:06;;;;;;;29.60;18.60;;;8.70;99.90;;;;;;4991086;28;20034;-82
2022/03/19 09:33:32;;;;;;;29.03;18.80;;;9.10;99.80;;;;;;4971016;28;20045;-80
2022/03/19 09:36:00;;;;;;;30.93;19.07;;;9.40;99.10;;;;;;4991051;28;20030;-80
2022/03/19 09:38:27;;;;;;;29.83;17.83;;;9.30;98.40;;;;;;4970847;28;20022;-80
2022/03/19 09:40:52;;;;;;;28.40;17.80;;;9.50;96.70;;;;;;4990983;28;20019;-80
2022/03/19 09:43:21;;;;;;;30.37;18.03;;;9.70;97.00;;;;;;4988835;28;20029;-80
2022/03/19 09:45:47;;;;;;;27.10;17.80;;;9.90;95.50;;;;;;4985161;28;20046;-80
2022/03/19 09:48:12;;;;;;;28.03;16.67;;;9.90;94.90;;;;;;4989070;28;20050;-80
2022/03/19 09:50:38;;;;;;;27.20;17.03;;;9.90;94.50;;;;;;4990324;28;20475;-74
2022/03/19 09:53:05;;;;;;;26.60;16.53;;;10.00;93.60;;;;;;4978518;28;20348;-74
2022/03/19 09:55:32;;;;;;;26.13;16.90;;;10.10;91.60;;;;;;4980762;28;20029;-74
2022/03/19 09:57:58;;;;;;;29.33;18.00;;;10.00;91.10;;;;;;4996096;28;20418;-74
2022/03/19 10:00:26;;;;;;;25.77;17.57;;;10.00;91.20;;;;;;4994404;28;20034;-80
2022/03/19 10:03:06;;;;;;;26.50;17.40;;;10.10;91.20;;;;;;4975362;28;20638;-80
2022/03/19 10:08:37;;;;;;;26.63;16.47;;;10.40;88.30;;;;;;4993582;28;20113;-76
2022/03/19 10:11:13;;;;;;;27.13;17.05;;;10.50;88.50;;;;;;4996839;28;20454;-77
2022/03/19 10:13:42;;;;;;;25.77;17.10;;;10.40;87.60;;;;;;4996347;28;20022;-77
2022/03/19 10:16:09;;;;;;;23.83;15.97;;;10.70;86.60;;;;;;4996468;28;20490;-76
2022/03/19 10:18:35;;;;;;;29.57;15.97;;;10.80;85.50;;;;;;4996647;28;20034;-77
2022/03/19 10:21:16;;;;;;;23.93;16.40;;;10.70;82.70;;;;;;4996401;28;20054;-77
2022/03/19 10:23:42;;;;;;;22.17;16.03;;;10.70;83.20;;;;;;4996209;28;20022;-77
2022/03/19 10:26:22;;;;;;;25.23;15.60;;;10.80;83.10;;;;;;4996799;28;20027;-77
2022/03/19 10:29:05;;;;;;;25.80;16.57;;;10.90;84.30;;;;;;4996686;28;20101;-77
2022/03/19 10:31:36;;;;;;;23.27;15.30;;;11.00;81.70;;;;;;4996744;28;20370;-77
2022/03/19 10:34:04;;;;;;;23.80;15.23;;;11.00;79.40;;;;;;4996075;28;20476;-77
2022/03/19 10:36:40;;;;;;;24.47;16.47;;;11.20;79.90;;;;;;4996276;28;20022;-77
2022/03/19 10:39:11;;;;;;;24.30;15.70;;;11.30;78.70;;;;;;4978409;28;20049;-77
2022/03/19 10:41:37;;;;;;;24.17;15.27;;;11.30;78.10;;;;;;4979608;28;20035;-77
2022/03/19 10:44:27;;;;;;;23.38;14.80;;;11.40;78.00;;;;;;4996163;28;20023;-77
2022/03/19 10:46:57;;;;;;;22.87;15.37;;;11.40;75.50;;;;;;4988300;28;20089;-77
2022/03/19 10:49:28;;;;;;;22.80;15.03;;;11.40;75.40;;;;;;4995783;28;20110;-77
2022/03/19 10:51:56;;;;;;;28.33;16.67;;;11.40;75.70;;;;;;4995966;28;20081;-78
2022/03/19 10:54:22;;;;;;;22.70;14.70;;;11.40;74.20;;;;;;4995999;28;20031;-77
2022/03/19 10:56:50;;;;;;;21.90;14.50;;;11.60;77.10;;;;;;4995661;28;20412;-77
2022/03/19 10:59:15;;;;;;;22.20;14.38;;;11.60;74.20;;;;;;4978251;28;20026;-77
2022/03/19 11:01:42;;;;;;;20.42;14.25;;;11.80;75.30;;;;;;4978651;28;20483;-76
2022/03/19 11:04:10;;;;;;;23.70;14.20;;;11.80;74.40;;;;;;4978074;28;20026;-78
2022/03/19 11:06:38;;;;;;;21.88;14.93;;;11.90;74.30;;;;;;4995476;28;20022;-77
2022/03/19 11:09:10;;;;;;;20.20;14.20;;;12.10;74.20;;;;;;4977658;28;20050;-77
2022/03/19 11:11:49;;;;;;;23.77;15.10;;;12.60;71.40;;;;;;4995979;28;20026;-77
2022/03/19 11:14:22;;;;;;;23.42;14.93;;;12.50;70.60;;;;;;4995272;28;20073;-78
2022/03/19 11:17:23;;;;;;;23.52;15.93;;;12.70;70.10;;;;;;4995706;28;20058;-78
2022/03/19 11:19:40;;;;;;;22.08;15.70;;;12.40;69.10;;;;;;4994851;28;20026;-77
2022/03/19 11:22:06;;;;;;;22.17;14.88;;;12.70;69.50;;;;;;4995030;28;20096;-76
2022/03/19 11:24:40;;;;;;;22.65;14.95;;;12.40;70.20;;;;;;4994534;28;20409;-76
2022/03/19 11:27:09;;;;;;;22.52;15.60;;;12.40;69.20;;;;;;4992689;28;20030;-77
2022/03/19 11:29:35;;;;;;;20.65;14.63;;;12.60;67.10;;;;;;4976182;28;20173;-76
2022/03/19 11:32:05;;;;;;;23.88;15.98;;;12.70;68.70;;;;;;4978138;28;20028;-77
2022/03/19 11:34:56;;;;;;;21.02;14.18;;;12.70;66.90;;;;;;4977285;28;20091;-77
2022/03/19 11:37:23;;;;;;;22.50;14.65;;;12.50;67.50;;;;;;4993861;28;20030;-77
2022/03/19 11:40:11;;;;;;;22.33;14.80;;;12.20;66.60;;;;;;4993139;28;20034;-77
2022/03/19 11:42:52;;;;;;;23.55;15.15;;;12.20;66.80;;;;;;4978140;28;20034;-77
2022/03/19 11:45:17;;;;;;;20.90;14.32;;;12.20;67.40;;;;;;4990017;28;20031;-79
2022/03/19 11:47:51;;;;;;;26.30;15.95;;;12.30;66.00;;;;;;5084781;27;20428;-79
2022/03/19 11:50:18;;;;;;;26.15;17.17;;;12.10;66.00;;;;;;5073723;28;20028;-79
2022/03/19 11:52:46;;;;;;;22.58;15.27;;;12.20;65.70;;;;;;5084065;28;20108;-73
2022/03/19 11:55:13;;;;;;;24.70;15.13;;;12.50;65.30;;;;;;5072341;28;20137;-75
2022/03/19 11:58:03;;;;;;;22.33;16.38;;;12.60;66.10;;;;;;5078023;28;20106;-76
2022/03/19 12:00:35;;;;;;;23.13;15.00;;;12.70;65.10;;;;;;5067507;28;20108;-76
2022/03/19 12:03:07;;;;;;;21.00;14.70;;;12.80;64.60;;;;;;5077994;28;20024;-76
2022/03/19 12:05:35;;;;;;;24.75;15.93;;;12.70;64.20;;;;;;5079648;28;20096;-76
2022/03/19 12:08:12;;;;;;;24.83;17.67;;;12.80;64.90;;;;;;5071959;28;20021;-76
2022/03/19 12:11:01;;;;;;;22.23;16.77;;;12.90;64.20;;;;;;5074884;28;20081;-76
2022/03/19 12:13:26;;;;;;;24.30;16.23;;;12.90;64.70;;;;;;5072456;28;20048;-77
2022/03/19 12:15:53;;;;;;;21.33;15.25;;;12.90;64.30;;;;;;5078390;28;20085;-78
2022/03/19 12:18:38;;;;;;;22.23;15.20;;;13.20;63.70;;;;;;5079097;28;20031;-76
2022/03/19 12:21:20;;;;;;;24.55;15.70;;;13.00;65.90;;;;;;5073187;28;20054;-76
2022/03/19 12:23:49;;;;;;;22.10;16.70;;;13.30;63.60;;;;;;5071823;28;20073;-73
2022/03/19 12:26:16;;;;;;;23.42;16.10;;;13.30;64.10;;;;;;5076816;28;20107;-74
2022/03/19 12:28:43;;;;;;;25.10;16.50;;;13.40;63.60;;;;;;5072681;28;20090;-74
2022/03/19 12:31:14;;;;;;;23.35;16.95;;;13.40;62.30;;;;;;5069623;28;20489;-74
2022/03/19 12:33:40;;;;;;;22.00;16.10;;;13.40;62.10;;;;;;5073114;28;20028;-78
2022/03/19 12:36:13;;;;;;;22.83;15.63;;;13.30;61.20;;;;;;5074414;28;20440;-76
2022/03/19 12:38:38;;;;;;;23.42;17.10;;;13.30;61.20;;;;;;5067912;28;20032;-76
2022/03/19 12:43:48;;;;;;;24.88;17.27;;;13.20;60.10;;;;;;5071632;28;20037;-76
2022/03/19 12:46:23;;;;;;;24.30;16.30;;;13.20;61.80;;;;;;5079933;28;20049;-77
2022/03/19 12:48:48;;;;;;;22.50;15.25;;;13.10;61.30;;;;;;5075842;28;20086;-76
2022/03/19 12:51:25;;;;;;;23.85;15.55;;;13.20;61.50;;;;;;5067475;28;20029;-77
2022/03/19 12:53:51;;;;;;;23.08;16.08;;;13.20;61.10;;;;;;5067441;28;20027;-77
2022/03/19 12:56:22;;;;;;;20.08;14.15;;;13.10;61.80;;;;;;5067353;28;20104;-77